Time;durP1;ratioP1;P1;durP2;ratioP2;P2;SDS_P1;SDS_P2;PMS_P1;PMS_P2;Temp;Humidity;BMP_temperature;BMP_pressure;BME280_temperature;BME280_humidity;BME280_pressure;Samples;Min_cycle;Max_cycle;Signal;HPM_P1;HPM_P2
2023/02/19 00:01:10;;;;;;;3.10;1.85;;;;;;;;;;5019381;28;20401;-67
2023/02/19 00:03:36;;;;;;;2.00;1.52;;;;;;;;;;5002382;28;20021;-69
2023/02/19 00:06:03;;;;;;;3.30;1.98;;;;;;;;;;5004430;28;20022;-70
2023/02/19 00:08:30;;;;;;;2.25;1.52;;;;;;;;;;5005238;28;20346;-72
2023/02/19 00:10:58;;;;;;;2.85;1.60;;;;;;;;;;5000217;28;20085;-68
2023/02/19 00:13:24;;;;;;;2.33;1.75;;;;;;;;;;5020670;28;20100;-69
2023/02/19 00:15:49;;;;;;;4.87;1.83;;;;;;;;;;5023895;28;20054;-69
2023/02/19 00:18:14;;;;;;;5.13;1.93;;;;;;;;;;5022144;28;20301;-68
2023/02/19 00:20:39;;;;;;;5.10;1.50;;;;;;;;;;5013244;28;20272;-68
2023/02/19 00:23:05;;;;;;;1.53;1.43;;;;;;;;;;5027561;28;20279;-70
2023/02/19 00:25:30;;;;;;;2.75;1.63;;;;;;;;;;5019734;28;20273;-68
2023/02/19 00:27:55;;;;;;;3.23;1.87;;;;;;;;;;5026878;28;20030;-78
2023/02/19 00:30:20;;;;;;;3.33;1.87;;;;;;;;;;5017660;28;20276;-79
2023/02/19 00:32:49;;;;;;;3.00;1.40;;;;;;;;;;5012647;28;20612;-80
2023/02/19 00:35:14;;;;;;;5.15;1.92;;;;;;;;;;5005361;28;20284;-79
2023/02/19 00:37:39;;;;;;;2.78;1.70;;;;;;;;;;5005995;28;20385;-79
2023/02/19 00:40:05;;;;;;;1.63;1.48;;;;;;;;;;5014091;28;20102;-79
2023/02/19 00:42:30;;;;;;;4.07;1.58;;;;;;;;;;5012850;28;20546;-80
2023/02/19 00:44:55;;;;;;;3.23;1.33;;;;;;;;;;4994749;28;20026;-80
2023/02/19 00:47:20;;;;;;;2.23;1.40;;;;;;;;;;5013061;28;20636;-69
2023/02/19 00:49:46;;;;;;;3.50;2.00;;;;;;;;;;5012754;28;20771;-68
2023/02/19 00:52:11;;;;;;;2.37;1.60;;;;;;;;;;5012637;28;20839;-68
2023/02/19 00:54:36;;;;;;;4.07;1.53;;;;;;;;;;5016515;28;20030;-68
2023/02/19 00:57:01;;;;;;;1.23;1.13;;;;;;;;;;5011325;28;20777;-69
2023/02/19 00:59:27;;;;;;;2.38;1.42;;;;;;;;;;5010309;28;20640;-68
2023/02/19 01:01:52;;;;;;;1.93;1.40;;;;;;;;;;5006758;28;20050;-78
2023/02/19 01:04:17;;;;;;;2.30;1.40;;;;;;;;;;4991159;28;20036;-78
2023/02/19 01:06:42;;;;;;;2.78;1.60;;;;;;;;;;5005827;28;20053;-68
2023/02/19 01:09:08;;;;;;;2.43;1.50;;;;;;;;;;5012184;28;20386;-66
2023/02/19 01:11:33;;;;;;;1.92;1.50;;;;;;;;;;5010995;28;20755;-67
2023/02/19 01:13:59;;;;;;;2.13;1.42;;;;;;;;;;5009448;28;20049;-67
2023/02/19 01:16:26;;;;;;;4.18;1.77;;;;;;;;;;5007505;28;20450;-66
2023/02/19 01:18:52;;;;;;;1.83;1.38;;;;;;;;;;5017278;28;20021;-66
2023/02/19 01:21:21;;;;;;;2.78;1.42;;;;;;;;;;5012416;28;20487;-69
2023/02/19 01:23:46;;;;;;;2.22;1.80;;;;;;;;;;4988235;28;20018;-68
2023/02/19 01:26:13;;;;;;;1.65;1.20;;;;;;;;;;5001964;28;20021;-69
2023/02/19 01:28:38;;;;;;;1.58;1.20;;;;;;;;;;5012748;28;20046;-68
2023/02/19 01:31:05;;;;;;;2.25;1.48;;;;;;;;;;5008633;28;20254;-70
2023/02/19 01:33:31;;;;;;;2.03;1.90;;;;;;;;;;4989335;28;20485;-68
2023/02/19 01:35:56;;;;;;;2.88;1.50;;;;;;;;;;4995258;28;20029;-72
2023/02/19 01:38:21;;;;;;;2.47;1.63;;;;;;;;;;5009560;28;20068;-78
2023/02/19 01:41:13;;;;;;;3.30;1.55;;;;;;;;;;4995259;28;20041;-69
2023/02/19 01:43:57;;;;;;;4.13;1.92;;;;;;;;;;5003788;28;20034;-68
2023/02/19 01:46:30;;;;;;;2.00;1.40;;;;;;;;;;4988655;28;20327;-70
2023/02/19 01:48:57;;;;;;;3.13;1.60;;;;;;;;;;5005735;28;20052;-69
2023/02/19 01:51:23;;;;;;;1.30;1.10;;;;;;;;;;5010913;28;20113;-69
2023/02/19 01:53:51;;;;;;;3.03;1.40;;;;;;;;;;5006206;28;20105;-70
2023/02/19 01:56:17;;;;;;;2.85;1.25;;;;;;;;;;5008463;28;20113;-68
2023/02/19 01:58:43;;;;;;;1.67;1.33;;;;;;;;;;4996948;28;20029;-67
2023/02/19 02:01:09;;;;;;;1.40;1.25;;;;;;;;;;5011871;28;20367;-80
2023/02/19 02:03:36;;;;;;;2.10;1.30;;;;;;;;;;5010882;28;20018;-78
2023/02/19 02:06:04;;;;;;;2.80;1.30;;;;;;;;;;4994468;28;20018;-78
2023/02/19 02:11:15;;;;;;;2.08;1.08;;;;;;;;;;5011829;28;20029;-79
2023/02/19 02:13:41;;;;;;;1.00;1.00;;;;;;;;;;5014627;28;20380;-77
2023/02/19 02:16:25;;;;;;;1.30;1.20;;;;;;;;;;5009902;28;20108;-79
2023/02/19 02:18:53;;;;;;;1.98;1.20;;;;;;;;;;5017402;28;20025;-79
2023/02/19 02:21:38;;;;;;;1.63;1.30;;;;;;;;;;4992712;28;20105;-79
2023/02/19 02:24:22;;;;;;;2.50;1.25;;;;;;;;;;5007864;28;20022;-80
2023/02/19 02:27:05;;;;;;;2.28;1.20;;;;;;;;;;5013387;28;20038;-80
2023/02/19 02:29:54;;;;;;;2.83;1.63;;;;;;;;;;5011458;28;20026;-79
2023/02/19 02:32:23;;;;;;;1.20;1.10;;;;;;;;;;5004680;28;20042;-80
2023/02/19 02:34:52;;;;;;;1.88;1.35;;;;;;;;;;5010191;28;20033;-67
2023/02/19 02:37:18;;;;;;;1.27;1.03;;;;;;;;;;5016315;28;20037;-79
2023/02/19 02:39:44;;;;;;;2.83;1.55;;;;;;;;;;5010794;28;20029;-79
2023/02/19 02:42:28;;;;;;;1.65;1.40;;;;;;;;;;4990105;28;20026;-80
2023/02/19 02:47:58;;;;;;;1.98;1.42;;;;;;;;;;5013155;28;20124;-79
2023/02/19 02:50:25;;;;;;;1.70;1.40;;;;;;;;;;5009146;28;20058;-79
2023/02/19 02:55:41;;;;;;;2.22;1.45;;;;;;;;;;5012648;28;20022;-69
2023/02/19 02:58:07;;;;;;;2.55;1.40;;;;;;;;;;5004102;28;20113;-68
2023/02/19 03:03:19;;;;;;;4.07;1.48;;;;;;;;;;5019400;28;20030;-69
2023/02/19 03:05:53;;;;;;;1.70;1.17;;;;;;;;;;5013571;28;20583;-68
2023/02/19 03:08:18;;;;;;;2.03;1.20;;;;;;;;;;5009574;28;20612;-69
2023/02/19 03:19:18;;;;;;;2.00;1.10;;;;;;;;;;5010053;28;20046;-74
2023/02/19 03:21:46;;;;;;;1.95;1.17;;;;;;;;;;5010736;28;20018;-73
2023/02/19 03:26:56;;;;;;;1.45;1.08;;;;;;;;;;5013620;28;20025;-73
2023/02/19 03:29:24;;;;;;;2.00;1.10;;;;;;;;;;5009046;28;20048;-67
2023/02/19 03:31:53;;;;;;;3.13;1.27;;;;;;;;;;5014014;28;20025;-67
2023/02/19 03:34:23;;;;;;;2.53;1.30;;;;;;;;;;5015861;28;20029;-69
2023/02/19 03:37:01;;;;;;;2.20;1.10;;;;;;;;;;5009878;28;20041;-69
2023/02/19 03:39:26;;;;;;;2.25;0.95;;;;;;;;;;5012973;28;20049;-69
2023/02/19 03:41:54;;;;;;;1.55;1.27;;;;;;;;;;5012240;28;20021;-68
2023/02/19 03:44:29;;;;;;;1.15;0.90;;;;;;;;;;5012015;28;20134;-69
2023/02/19 03:47:09;;;;;;;2.17;1.10;;;;;;;;;;4995426;28;20543;-68
2023/02/19 03:49:37;;;;;;;1.90;1.52;;;;;;;;;;5010538;28;20053;-69
2023/02/19 03:52:02;;;;;;;1.23;1.00;;;;;;;;;;4996468;28;20414;-69
2023/02/19 03:54:34;;;;;;;1.87;1.13;;;;;;;;;;5011532;28;20026;-69
2023/02/19 03:57:20;;;;;;;1.00;0.98;;;;;;;;;;5007705;28;20030;-69
2023/02/19 03:59:49;;;;;;;1.17;1.00;;;;;;;;;;5011261;28;20061;-69
2023/02/19 04:02:23;;;;;;;1.58;1.00;;;;;;;;;;4987987;28;20489;-68
2023/02/19 04:04:50;;;;;;;1.20;1.00;;;;;;;;;;4998239;28;20026;-68
2023/02/19 04:07:15;;;;;;;1.33;1.20;;;;;;;;;;5020165;28;20024;-68
2023/02/19 04:09:43;;;;;;;1.08;0.98;;;;;;;;;;5011693;28;20047;-76
2023/02/19 04:12:09;;;;;;;0.90;0.90;;;;;;;;;;5003957;28;20021;-75
2023/02/19 04:14:37;;;;;;;1.77;1.10;;;;;;;;;;4993358;28;20034;-73
2023/02/19 04:17:12;;;;;;;1.15;0.82;;;;;;;;;;5007018;28;20464;-76
2023/02/19 04:19:39;;;;;;;1.15;0.88;;;;;;;;;;5008180;28;20109;-75
2023/02/19 04:22:05;;;;;;;1.45;0.93;;;;;;;;;;5011320;28;20030;-76
2023/02/19 04:24:33;;;;;;;0.93;0.90;;;;;;;;;;5009766;28;20030;-73
2023/02/19 04:26:59;;;;;;;2.55;1.00;;;;;;;;;;4995757;28;20025;-74
2023/02/19 04:29:24;;;;;;;0.90;0.90;;;;;;;;;;4995167;28;20511;-70
2023/02/19 04:31:49;;;;;;;0.98;0.80;;;;;;;;;;5008189;28;20175;-71
2023/02/19 04:34:15;;;;;;;0.90;0.90;;;;;;;;;;5008761;28;20426;-71
2023/02/19 04:36:40;;;;;;;1.05;0.98;;;;;;;;;;5011515;28;20853;-72
2023/02/19 04:39:06;;;;;;;0.80;0.80;;;;;;;;;;5019745;28;20013;-71
2023/02/19 04:41:32;;;;;;;2.00;0.90;;;;;;;;;;4987429;28;20277;-71
2023/02/19 04:44:06;;;;;;;1.75;0.80;;;;;;;;;;5062177;28;20509;-79
2023/02/19 04:46:31;;;;;;;1.20;0.90;;;;;;;;;;5042445;28;20108;-67
2023/02/19 04:48:56;;;;;;;0.77;0.70;;;;;;;;;;5046342;28;20031;-66
2023/02/19 04:51:22;;;;;;;0.70;0.70;;;;;;;;;;5039701;28;20026;-68
2023/02/19 04:53:47;;;;;;;1.70;0.80;;;;;;;;;;5054643;28;20283;-66
2023/02/19 04:56:13;;;;;;;1.30;0.80;;;;;;;;;;5055299;28;20124;-66
2023/02/19 04:58:39;;;;;;;0.70;0.70;;;;;;;;;;5042033;28;20068;-68
2023/02/19 05:01:04;;;;;;;2.28;1.95;;;;;;;;;;5041361;28;20053;-67
2023/02/19 05:03:30;;;;;;;1.33;0.60;;;;;;;;;;5046569;28;20120;-77
2023/02/19 05:05:55;;;;;;;1.30;0.70;;;;;;;;;;5042584;28;20035;-70
2023/02/19 05:08:20;;;;;;;0.75;0.70;;;;;;;;;;5045303;28;20087;-68
2023/02/19 05:10:46;;;;;;;0.50;0.50;;;;;;;;;;5048878;28;20022;-67
2023/02/19 05:13:11;;;;;;;0.50;0.50;;;;;;;;;;5047301;28;20531;-67
2023/02/19 05:15:36;;;;;;;1.38;0.50;;;;;;;;;;5042464;28;20025;-66
2023/02/19 05:18:01;;;;;;;1.17;0.63;;;;;;;;;;5049245;28;20373;-68
2023/02/19 05:20:27;;;;;;;0.70;0.70;;;;;;;;;;5042370;28;20017;-69
2023/02/19 05:22:52;;;;;;;1.53;0.60;;;;;;;;;;5043019;28;20140;-75
2023/02/19 05:25:17;;;;;;;0.83;0.50;;;;;;;;;;5042873;28;20352;-75
2023/02/19 05:27:42;;;;;;;0.87;0.70;;;;;;;;;;5042544;28;20380;-75
2023/02/19 05:30:08;;;;;;;1.35;0.60;;;;;;;;;;5032356;28;20134;-73
2023/02/19 05:32:33;;;;;;;1.33;0.60;;;;;;;;;;5041072;28;20175;-74
2023/02/19 05:34:59;;;;;;;0.50;0.50;;;;;;;;;;5041037;28;20029;-76
2023/02/19 05:37:24;;;;;;;1.00;0.80;;;;;;;;;;5037923;28;20017;-68
2023/02/19 05:39:49;;;;;;;0.70;0.70;;;;;;;;;;5037429;28;20284;-66
2023/02/19 05:42:14;;;;;;;0.57;0.57;;;;;;;;;;5044826;28;20379;-72
2023/02/19 05:44:40;;;;;;;0.50;0.50;;;;;;;;;;5046309;28;20268;-71
2023/02/19 05:47:05;;;;;;;0.57;0.50;;;;;;;;;;5034069;28;20032;-71
2023/02/19 05:49:30;;;;;;;0.50;0.50;;;;;;;;;;5040277;28;20013;-70
2023/02/19 05:51:56;;;;;;;0.40;0.40;;;;;;;;;;5033799;28;20358;-72
2023/02/19 05:54:21;;;;;;;0.73;0.70;;;;;;;;;;5033259;28;20277;-72
2023/02/19 05:56:46;;;;;;;0.50;0.50;;;;;;;;;;5028680;28;20036;-73
2023/02/19 05:59:16;;;;;;;0.88;0.70;;;;;;;;;;5023407;28;20285;-71
2023/02/19 06:01:41;;;;;;;0.60;0.60;;;;;;;;;;5028466;28;20096;-69
2023/02/19 06:04:07;;;;;;;1.98;0.60;;;;;;;;;;5024777;28;20144;-69
2023/02/19 06:06:33;;;;;;;0.50;0.50;;;;;;;;;;5026416;28;20030;-71
2023/02/19 06:08:58;;;;;;;0.45;0.45;;;;;;;;;;5029345;28;20026;-68
2023/02/19 06:11:23;;;;;;;0.93;0.60;;;;;;;;;;5027814;28;20025;-71
2023/02/19 06:13:49;;;;;;;0.52;0.50;;;;;;;;;;5031575;28;20291;-68
2023/02/19 06:16:16;;;;;;;0.50;0.50;;;;;;;;;;5021723;28;20014;-69
2023/02/19 06:18:41;;;;;;;0.50;0.50;;;;;;;;;;5023992;28;20029;-67
2023/02/19 06:21:08;;;;;;;1.65;0.40;;;;;;;;;;5017154;28;20048;-67
2023/02/19 06:23:34;;;;;;;0.40;0.40;;;;;;;;;;5025422;28;20037;-70
2023/02/19 06:26:06;;;;;;;0.90;0.50;;;;;;;;;;5028325;28;20337;-67
2023/02/19 06:28:31;;;;;;;0.40;0.40;;;;;;;;;;5023732;28;20032;-67
2023/02/19 06:30:57;;;;;;;1.00;0.90;;;;;;;;;;5025013;28;20026;-66
2023/02/19 06:33:22;;;;;;;0.40;0.40;;;;;;;;;;5028074;28;20306;-79
2023/02/19 06:35:47;;;;;;;1.90;0.50;;;;;;;;;;5015773;28;20319;-77
2023/02/19 06:38:12;;;;;;;0.40;0.40;;;;;;;;;;5023407;28;20276;-80
2023/02/19 06:40:38;;;;;;;0.47;0.47;;;;;;;;;;5029760;28;20040;-79
2023/02/19 06:43:03;;;;;;;0.50;0.50;;;;;;;;;;5024078;28;20730;-78
2023/02/19 06:45:28;;;;;;;0.70;0.70;;;;;;;;;;5031761;28;20759;-79
2023/02/19 06:47:53;;;;;;;0.50;0.50;;;;;;;;;;5034108;28;20288;-78
2023/02/19 06:50:18;;;;;;;0.50;0.50;;;;;;;;;;5021680;28;20026;-78
2023/02/19 06:52:44;;;;;;;0.40;0.40;;;;;;;;;;5018418;28;20280;-69
2023/02/19 06:55:09;;;;;;;0.63;0.50;;;;;;;;;;5023644;28;20087;-69
2023/02/19 06:57:34;;;;;;;0.82;0.65;;;;;;;;;;5023209;28;20334;-70
2023/02/19 06:59:59;;;;;;;0.50;0.50;;;;;;;;;;5027987;28;20022;-69
2023/02/19 07:02:25;;;;;;;0.60;0.60;;;;;;;;;;5023270;28;20307;-68
2023/02/19 07:04:50;;;;;;;0.60;0.60;;;;;;;;;;5027399;28;20268;-69
2023/02/19 07:07:15;;;;;;;1.90;0.90;;;;;;;;;;5027277;28;20291;-69
2023/02/19 07:09:40;;;;;;;0.60;0.60;;;;;;;;;;5031441;28;20276;-70
2023/02/19 07:12:06;;;;;;;0.97;0.63;;;;;;;;;;5030131;28;20033;-70
2023/02/19 07:14:31;;;;;;;0.50;0.50;;;;;;;;;;5029583;28;20268;-69
2023/02/19 07:16:56;;;;;;;0.55;0.55;;;;;;;;;;5029207;28;20028;-69
2023/02/19 07:19:21;;;;;;;0.70;0.70;;;;;;;;;;5038643;28;20025;-69
2023/02/19 07:21:47;;;;;;;1.70;0.98;;;;;;;;;;5025939;28;20037;-72
2023/02/19 07:24:12;;;;;;;0.60;0.60;;;;;;;;;;5027718;28;20079;-71
2023/02/19 07:26:37;;;;;;;0.65;0.65;;;;;;;;;;5027182;28;20041;-69
2023/02/19 07:29:02;;;;;;;0.60;0.60;;;;;;;;;;5028506;28;20022;-79
2023/02/19 07:31:28;;;;;;;0.60;0.60;;;;;;;;;;5031550;28;20078;-70
2023/02/19 07:33:54;;;;;;;0.77;0.70;;;;;;;;;;5028098;28;20248;-72
2023/02/19 07:36:19;;;;;;;0.73;0.73;;;;;;;;;;5029832;28;20033;-69
2023/02/19 07:38:45;;;;;;;0.60;0.60;;;;;;;;;;5029502;28;20075;-70
2023/02/19 07:41:10;;;;;;;0.60;0.60;;;;;;;;;;5027854;28;20042;-70
2023/02/19 07:43:36;;;;;;;4.20;1.00;;;;;;;;;;5032296;28;20080;-72
2023/02/19 07:46:02;;;;;;;0.70;0.70;;;;;;;;;;5031246;28;20049;-68
2023/02/19 07:48:28;;;;;;;1.15;0.80;;;;;;;;;;5028152;28;20033;-72
2023/02/19 07:50:54;;;;;;;0.57;0.57;;;;;;;;;;5032955;28;20370;-71
2023/02/19 07:53:19;;;;;;;1.60;0.77;;;;;;;;;;5030093;28;20280;-68
2023/02/19 07:55:44;;;;;;;0.88;0.80;;;;;;;;;;5028869;28;20052;-70
2023/02/19 07:58:10;;;;;;;0.68;0.68;;;;;;;;;;5029306;28;20510;-71
2023/02/19 08:00:35;;;;;;;1.23;0.80;;;;;;;;;;5029579;28;20074;-69
2023/02/19 08:03:00;;;;;;;2.40;1.05;;;;;;;;;;5028398;28;20341;-70
2023/02/19 08:05:30;;;;;;;1.10;0.80;;;;;;;;;;5028876;28;20030;-70
2023/02/19 08:07:55;;;;;;;;;;;;;;;;;;5026963;28;20064;-70
2023/02/19 08:13:21;;;;;;;0.85;0.82;;;;;;;;;;5028844;28;20100;-69
2023/02/19 08:15:47;;;;;;;1.65;0.70;;;;;;;;;;5029812;28;20030;-68
2023/02/19 08:18:13;;;;;;;2.78;1.10;;;;;;;;;;5028744;28;20027;-72
2023/02/19 08:20:38;;;;;;;1.08;1.02;;;;;;;;;;5029138;28;20025;-70
2023/02/19 08:23:04;;;;;;;1.40;1.15;;;;;;;;;;5034966;28;20037;-76
2023/02/19 08:25:29;;;;;;;1.75;1.00;;;;;;;;;;5030890;28;20417;-69
2023/02/19 08:27:54;;;;;;;1.43;1.00;;;;;;;;;;5027596;28;20030;-71
2023/02/19 08:30:20;;;;;;;0.98;0.90;;;;;;;;;;5030790;28;20418;-70
2023/02/19 08:32:45;;;;;;;1.42;1.08;;;;;;;;;;5025114;28;20948;-70
2023/02/19 08:35:10;;;;;;;1.07;0.80;;;;;;;;;;5025265;28;20014;-69
2023/02/19 08:37:35;;;;;;;1.63;0.80;;;;;;;;;;5024484;28;20292;-70
2023/02/19 08:40:01;;;;;;;1.00;0.70;;;;;;;;;;5025122;28;20327;-72
2023/02/19 08:42:27;;;;;;;0.70;0.70;;;;;;;;;;5021527;28;20508;-80
2023/02/19 08:44:52;;;;;;;1.38;0.70;;;;;;;;;;5023479;28;20276;-73
2023/02/19 08:47:17;;;;;;;1.23;0.87;;;;;;;;;;5024199;28;20040;-71
2023/02/19 08:49:42;;;;;;;0.63;0.63;;;;;;;;;;5020318;28;20307;-71
2023/02/19 08:52:08;;;;;;;1.27;0.83;;;;;;;;;;5023777;28;20276;-73
2023/02/19 08:54:33;;;;;;;0.70;0.70;;;;;;;;;;5031210;28;20324;-73
2023/02/19 08:56:58;;;;;;;1.60;1.08;;;;;;;;;;5031315;28;20268;-73
2023/02/19 08:59:23;;;;;;;0.93;0.70;;;;;;;;;;5020285;28;20030;-72
2023/02/19 09:01:49;;;;;;;1.63;0.98;;;;;;;;;;5017654;28;20054;-72
2023/02/19 09:04:14;;;;;;;1.23;1.13;;;;;;;;;;5021800;28;20435;-67
2023/02/19 09:06:40;;;;;;;3.47;1.60;;;;;;;;;;5020565;28;20431;-67
2023/02/19 09:09:05;;;;;;;2.10;0.80;;;;;;;;;;5020291;28;20831;-69
2023/02/19 09:11:30;;;;;;;1.15;0.80;;;;;;;;;;5022728;28;20782;-68
2023/02/19 09:13:56;;;;;;;1.52;0.70;;;;;;;;;;5024399;28;20029;-69
2023/02/19 09:16:21;;;;;;;0.85;0.70;;;;;;;;;;5019704;28;20036;-70
2023/02/19 09:18:47;;;;;;;3.05;0.88;;;;;;;;;;5025671;28;20036;-72
2023/02/19 09:21:12;;;;;;;1.10;0.90;;;;;;;;;;5026443;28;20105;-72
2023/02/19 09:23:37;;;;;;;2.20;1.00;;;;;;;;;;5033354;28;20398;-73
2023/02/19 09:26:05;;;;;;;2.20;1.10;;;;;;;;;;5030839;28;20292;-74
2023/02/19 09:28:31;;;;;;;1.60;0.93;;;;;;;;;;5036543;28;20460;-74
2023/02/19 09:30:56;;;;;;;1.98;0.88;;;;;;;;;;5027998;28;20080;-72
2023/02/19 09:33:21;;;;;;;2.97;1.00;;;;;;;;;;5029693;28;20100;-72
2023/02/19 09:35:46;;;;;;;3.88;1.25;;;;;;;;;;5031619;28;20024;-71
2023/02/19 09:38:12;;;;;;;4.07;1.20;;;;;;;;;;5029831;28;20079;-70
2023/02/19 09:40:38;;;;;;;1.70;1.00;;;;;;;;;;5032297;28;20395;-68
2023/02/19 09:43:14;;;;;;;2.53;1.00;;;;;;;;;;5031219;28;20136;-67
2023/02/19 09:45:39;;;;;;;6.07;1.77;;;;;;;;;;5032390;28;20017;-68
2023/02/19 09:48:05;;;;;;;1.90;1.10;;;;;;;;;;5030951;28;20392;-68
2023/02/19 09:50:33;;;;;;;7.13;1.25;;;;;;;;;;5030771;28;20075;-67
2023/02/19 09:53:01;;;;;;;2.85;0.90;;;;;;;;;;5038865;28;20530;-65
2023/02/19 09:55:35;;;;;;;3.47;1.20;;;;;;;;;;5029724;28;20025;-81
2023/02/19 09:58:02;;;;;;;4.00;1.05;;;;;;;;;;5036032;28;20036;-66
2023/02/19 10:00:32;;;;;;;2.42;1.10;;;;;;;;;;5036663;28;20505;-81
2023/02/19 10:02:57;;;;;;;;;;;;;;;;;;5027198;28;20112;-83
2023/02/19 10:05:22;;;;;;;1.58;1.20;;;;;;;;;;5029577;28;20447;-81
2023/02/19 10:07:50;;;;;;;4.88;1.00;;;;;;;;;;5031035;28;20033;-79
2023/02/19 10:10:15;;;;;;;1.95;0.98;;;;;;;;;;5043029;28;20018;-81
2023/02/19 10:12:44;;;;;;;3.30;1.20;;;;;;;;;;5037727;28;20479;-81
2023/02/19 10:15:27;;;;;;;1.67;1.20;;;;;;;;;;5024296;28;20017;-71
2023/02/19 10:17:53;;;;;;;5.15;1.10;;;;;;;;;;5026890;28;20101;-69
2023/02/19 10:20:23;;;;;;;4.55;1.00;;;;;;;;;;5035005;28;20021;-68
2023/02/19 10:22:50;;;;;;;1.75;1.35;;;;;;;;;;5029650;28;20480;-68
2023/02/19 10:25:16;;;;;;;3.47;1.08;;;;;;;;;;5030704;28;20037;-70
2023/02/19 10:27:41;;;;;;;1.65;0.90;;;;;;;;;;5035675;28;20013;-69
2023/02/19 10:30:13;;;;;;;2.97;1.00;;;;;;;;;;5035312;28;20021;-68
2023/02/19 10:32:56;;;;;;;1.65;0.80;;;;;;;;;;5038421;28;20053;-77
2023/02/19 10:35:21;;;;;;;3.00;1.00;;;;;;;;;;5028379;28;20095;-74
2023/02/19 10:37:48;;;;;;;2.07;1.10;;;;;;;;;;5036952;28;20516;-75
2023/02/19 10:40:16;;;;;;;4.70;1.10;;;;;;;;;;5032277;28;20330;-75
2023/02/19 10:42:49;;;;;;;4.60;1.13;;;;;;;;;;5028209;28;20069;-72
2023/02/19 10:45:34;;;;;;;1.60;1.15;;;;;;;;;;5029911;28;20075;-71
2023/02/19 10:47:59;;;;;;;1.60;0.95;;;;;;;;;;5023960;28;20028;-72
2023/02/19 10:50:31;;;;;;;4.90;1.35;;;;;;;;;;5039819;28;20530;-69
2023/02/19 10:52:58;;;;;;;4.70;0.90;;;;;;;;;;5028514;28;20041;-69
2023/02/19 10:55:25;;;;;;;2.90;1.17;;;;;;;;;;5028548;28;20029;-72
2023/02/19 10:57:50;;;;;;;2.50;0.95;;;;;;;;;;5029798;28;20018;-71
2023/02/19 11:00:15;;;;;;;6.43;1.67;;;;;;;;;;5029343;28;20025;-72
2023/02/19 11:02:41;;;;;;;4.07;1.10;;;;;;;;;;5034421;28;20255;-72
2023/02/19 11:05:15;;;;;;;2.67;1.20;;;;;;;;;;5035559;28;20029;-73
2023/02/19 11:07:45;;;;;;;3.63;0.95;;;;;;;;;;5027714;28;20013;-74
2023/02/19 11:10:24;;;;;;;2.50;1.00;;;;;;;;;;5028720;28;20111;-69
2023/02/19 11:12:50;;;;;;;12.85;1.80;;;;;;;;;;5034326;28;20025;-66
2023/02/19 11:15:20;;;;;;;1.77;1.00;;;;;;;;;;5032848;28;20170;-66
2023/02/19 11:17:53;;;;;;;8.00;1.60;;;;;;;;;;5035730;28;20540;-66
2023/02/19 11:20:18;;;;;;;3.15;1.17;;;;;;;;;;5028426;28;20049;-67
2023/02/19 11:22:45;;;;;;;2.05;0.90;;;;;;;;;;5030424;28;20447;-67
2023/02/19 11:25:13;;;;;;;4.93;1.40;;;;;;;;;;5025145;28;20481;-68
2023/02/19 11:27:55;;;;;;;3.08;1.20;;;;;;;;;;5033278;28;20026;-67
2023/02/19 11:30:21;;;;;;;4.22;1.52;;;;;;;;;;5020740;28;20027;-72
2023/02/19 11:32:46;;;;;;;4.55;1.83;;;;;;;;;;5020529;28;20028;-71
2023/02/19 11:35:13;;;;;;;3.50;1.03;;;;;;;;;;5032303;28;20018;-71
2023/02/19 11:37:51;;;;;;;1.92;1.00;;;;;;;;;;5021744;28;20722;-71
2023/02/19 11:40:17;;;;;;;7.50;1.45;;;;;;;;;;5022435;28;20392;-72
2023/02/19 11:42:49;;;;;;;3.33;1.20;;;;;;;;;;5031872;28;20044;-75
2023/02/19 11:45:33;;;;;;;3.97;1.33;;;;;;;;;;5029595;28;20032;-71
2023/02/19 11:48:08;;;;;;;4.05;1.13;;;;;;;;;;5021902;28;20028;-67
2023/02/19 11:50:41;;;;;;;2.83;1.05;;;;;;;;;;5021230;28;20026;-69
2023/02/19 11:53:20;;;;;;;2.92;1.30;;;;;;;;;;5029744;28;20029;-68
2023/02/19 11:55:45;;;;;;;3.63;1.10;;;;;;;;;;5036115;28;20582;-71
2023/02/19 11:58:29;;;;;;;2.63;1.17;;;;;;;;;;5031517;28;20033;-68
2023/02/19 12:01:01;;;;;;;2.83;1.15;;;;;;;;;;5031891;28;20272;-68
2023/02/19 12:03:49;;;;;;;2.42;0.95;;;;;;;;;;5031307;28;20457;-68
2023/02/19 12:06:14;;;;;;;2.03;1.25;;;;;;;;;;5034674;28;20033;-64
2023/02/19 12:09:05;;;;;;;3.53;1.10;;;;;;;;;;5035990;28;20294;-71
2023/02/19 12:11:48;;;;;;;7.82;1.75;;;;;;;;;;5017845;28;20108;-72
2023/02/19 12:14:32;;;;;;;2.65;1.00;;;;;;;;;;5034901;28;20091;-70
2023/02/19 12:17:17;;;;;;;1.95;1.00;;;;;;;;;;5034208;28;20375;-68
2023/02/19 12:19:49;;;;;;;4.60;1.25;;;;;;;;;;5025143;28;20064;-75
2023/02/19 12:22:25;;;;;;;2.08;1.10;;;;;;;;;;5038305;28;20480;-69
2023/02/19 12:25:03;;;;;;;2.83;1.10;;;;;;;;;;5037941;28;20032;-74
2023/02/19 12:27:34;;;;;;;5.78;1.55;;;;;;;;;;5020867;28;20021;-68
2023/02/19 12:30:23;;;;;;;3.88;1.85;;;;;;;;;;5031662;28;20629;-66
2023/02/19 12:33:07;;;;;;;3.53;1.52;;;;;;;;;;5026646;28;20519;-65
2023/02/19 12:35:50;;;;;;;3.42;0.90;;;;;;;;;;5026806;28;20027;-67
2023/02/19 12:38:32;;;;;;;2.65;1.00;;;;;;;;;;5036865;28;20018;-67
2023/02/19 12:41:09;;;;;;;1.52;1.05;;;;;;;;;;5035377;28;20032;-74
2023/02/19 12:43:36;;;;;;;4.18;1.10;;;;;;;;;;5024140;28;20132;-68
2023/02/19 12:46:03;;;;;;;4.00;0.95;;;;;;;;;;5033700;28;20116;-73
2023/02/19 12:48:41;;;;;;;4.45;1.25;;;;;;;;;;5032529;28;20044;-73
2023/02/19 12:51:21;;;;;;;1.30;0.88;;;;;;;;;;5029083;28;20085;-70
2023/02/19 12:53:51;;;;;;;2.60;1.05;;;;;;;;;;5035209;28;20033;-70
2023/02/19 12:56:19;;;;;;;5.05;1.40;;;;;;;;;;5028810;28;20032;-70
2023/02/19 12:58:49;;;;;;;5.13;1.38;;;;;;;;;;5029557;28;20096;-71
2023/02/19 13:01:22;;;;;;;1.55;0.90;;;;;;;;;;5024665;28;20032;-76
2023/02/19 13:03:53;;;;;;;2.33;1.10;;;;;;;;;;5024741;28;20033;-71
2023/02/19 13:06:34;;;;;;;2.80;1.05;;;;;;;;;;5029380;28;20029;-76
2023/02/19 13:09:08;;;;;;;4.38;1.10;;;;;;;;;;5031634;28;20025;-79
2023/02/19 13:11:42;;;;;;;4.40;2.00;;;;;;;;;;5040197;28;20025;-75
2023/02/19 13:14:07;;;;;;;4.65;1.55;;;;;;;;;;5033814;28;20048;-76
2023/02/19 13:16:35;;;;;;;3.37;1.53;;;;;;;;;;5031729;28;20457;-76
2023/02/19 13:19:03;;;;;;;2.50;1.20;;;;;;;;;;5023074;28;20022;-74
2023/02/19 13:24:25;;;;;;;2.28;1.23;;;;;;;;;;5025018;28;20545;-68
2023/02/19 13:26:55;;;;;;;4.97;1.25;;;;;;;;;;5024669;28;20587;-71
2023/02/19 13:29:21;;;;;;;2.10;1.00;;;;;;;;;;5021999;28;20028;-69
2023/02/19 13:31:52;;;;;;;3.78;1.50;;;;;;;;;;5020272;28;20104;-71
2023/02/19 13:34:34;;;;;;;1.88;1.23;;;;;;;;;;5027667;28;21219;-67
2023/02/19 13:37:00;;;;;;;2.20;1.08;;;;;;;;;;5028898;28;20032;-68
2023/02/19 13:39:25;;;;;;;4.20;1.33;;;;;;;;;;5031482;28;20018;-70
2023/02/19 13:41:55;;;;;;;4.05;1.10;;;;;;;;;;5025338;28;20048;-70
2023/02/19 13:44:22;;;;;;;1.40;0.98;;;;;;;;;;5039395;28;20025;-67
2023/02/19 13:46:48;;;;;;;3.90;1.25;;;;;;;;;;5030198;28;20036;-68
2023/02/19 13:49:28;;;;;;;5.43;1.48;;;;;;;;;;5027174;28;20022;-68
2023/02/19 13:51:54;;;;;;;4.03;1.48;;;;;;;;;;5022892;28;20040;-65
2023/02/19 13:54:23;;;;;;;8.07;1.15;;;;;;;;;;5032214;28;20023;-65
2023/02/19 13:56:48;;;;;;;2.47;1.00;;;;;;;;;;5031674;28;20024;-78
2023/02/19 13:59:22;;;;;;;3.17;1.20;;;;;;;;;;5030101;28;20021;-69
2023/02/19 14:01:53;;;;;;;3.72;1.48;;;;;;;;;;5030407;28;20028;-67
2023/02/19 14:04:31;;;;;;;4.35;1.48;;;;;;;;;;5029696;28;20068;-67
2023/02/19 14:07:01;;;;;;;12.40;2.53;;;;;;;;;;5029943;28;20021;-69
2023/02/19 14:09:32;;;;;;;4.43;1.73;;;;;;;;;;5029395;28;20036;-66
2023/02/19 14:12:08;;;;;;;5.65;1.73;;;;;;;;;;5031458;28;20029;-62
2023/02/19 14:14:41;;;;;;;5.25;1.70;;;;;;;;;;5037570;28;20322;-61
2023/02/19 14:17:09;;;;;;;3.60;1.55;;;;;;;;;;5034479;28;20211;-71
2023/02/19 14:19:40;;;;;;;9.00;2.05;;;;;;;;;;5030646;28;20025;-74
2023/02/19 14:22:24;;;;;;;2.78;1.00;;;;;;;;;;5030982;28;20017;-77
2023/02/19 14:24:51;;;;;;;5.25;1.85;;;;;;;;;;5029617;28;20025;-76
2023/02/19 14:27:16;;;;;;;3.78;1.20;;;;;;;;;;5029187;28;20107;-74
2023/02/19 14:29:41;;;;;;;2.33;1.10;;;;;;;;;;5027756;28;20994;-77
2023/02/19 14:32:10;;;;;;;6.38;1.30;;;;;;;;;;5035443;28;20033;-71
2023/02/19 14:34:35;;;;;;;4.18;1.40;;;;;;;;;;5033630;28;20021;-72
2023/02/19 14:37:00;;;;;;;2.03;1.10;;;;;;;;;;5031335;28;20033;-77
2023/02/19 14:39:35;;;;;;;3.13;1.00;;;;;;;;;;5028069;28;20292;-76
2023/02/19 14:42:12;;;;;;;3.95;1.15;;;;;;;;;;5034665;28;20233;-75
2023/02/19 14:44:49;;;;;;;2.95;1.25;;;;;;;;;;5027269;28;20443;-74
2023/02/19 14:47:17;;;;;;;4.07;1.30;;;;;;;;;;5036080;28;20029;-76
2023/02/19 14:49:58;;;;;;;4.35;1.10;;;;;;;;;;5032093;28;20052;-83
2023/02/19 14:52:31;;;;;;;3.38;1.10;;;;;;;;;;5025441;28;20222;-65
2023/02/19 14:54:56;;;;;;;2.97;1.35;;;;;;;;;;5030406;28;20029;-69
2023/02/19 14:57:27;;;;;;;4.53;1.30;;;;;;;;;;5030434;28;20033;-68
2023/02/19 14:59:54;;;;;;;5.25;1.83;;;;;;;;;;5026318;28;20144;-68
2023/02/19 15:02:20;;;;;;;4.85;1.40;;;;;;;;;;5030696;28;21735;-69
2023/02/19 15:04:45;;;;;;;1.85;1.00;;;;;;;;;;5026677;28;20036;-69
2023/02/19 15:07:13;;;;;;;5.25;1.77;;;;;;;;;;5038359;28;20025;-69
2023/02/19 15:09:41;;;;;;;4.72;1.73;;;;;;;;;;5029089;28;20060;-71
2023/02/19 15:12:06;;;;;;;3.95;1.60;;;;;;;;;;5031072;28;20400;-66
2023/02/19 15:14:32;;;;;;;4.45;1.73;;;;;;;;;;5037219;28;20045;-64
2023/02/19 15:17:00;;;;;;;3.20;1.00;;;;;;;;;;5030193;28;20025;-66
2023/02/19 15:19:25;;;;;;;3.70;1.40;;;;;;;;;;5041874;28;20039;-65